Terminal Aerodrome Forecast
Issued by NWS

Home | Current Version | Previous Version | Text Only | Print | Product List | Glossary On
Versions: 1 2 3 4 5 6 7 8 9 10 11 12 13 14 15 16 17
000
FTUS45 KFGZ 290500
TAFPRC
TAF
KPRC 290534Z 2906/3006 20006KT P6SM SCT120 BKN200
     FM291500 VRB05KT P6SM BKN120 OVC200
     FM300130 19005KT P6SM SCT060 OVC080=

USA.gov is the U.S. government's official web portal to all federal, state and local government web resources and services.